sensor_id;sensor_type;location;lat;lon;timestamp;pressure;altitude;pressure_sealevel;temperature;humidity
42761;BME280;31672;47.638;19.026;2023-09-19T00:03:32;99530.91;;;21.91;70.40
42761;BME280;31672;47.638;19.026;2023-09-19T00:08:36;99537.97;;;21.92;69.84
42761;BME280;31672;47.638;19.026;2023-09-19T00:13:40;99532.28;;;21.94;69.95
42761;BME280;31672;47.638;19.026;2023-09-19T00:18:45;99530.66;;;21.92;70.44
42761;BME280;31672;47.638;19.026;2023-09-19T00:23:49;99530.09;;;21.90;71.08
42761;BME280;31672;47.638;19.026;2023-09-19T00:28:55;99522.22;;;21.89;71.29
42761;BME280;31672;47.638;19.026;2023-09-19T00:34:00;99527.63;;;21.89;72.02
42761;BME280;31672;47.638;19.026;2023-09-19T00:39:07;99524.66;;;21.85;72.17
42761;BME280;31672;47.638;19.026;2023-09-19T00:44:11;99530.31;;;21.84;72.41
42761;BME280;31672;47.638;19.026;2023-09-19T00:49:15;99538.41;;;21.79;73.00
42761;BME280;31672;47.638;19.026;2023-09-19T00:54:20;99524.28;;;21.77;73.59
42761;BME280;31672;47.638;19.026;2023-09-19T00:59:26;99531.03;;;21.74;73.95
42761;BME280;31672;47.638;19.026;2023-09-19T01:04:31;99524.88;;;21.79;73.52
42761;BME280;31672;47.638;19.026;2023-09-19T01:09:35;99523.03;;;21.84;73.61
42761;BME280;31672;47.638;19.026;2023-09-19T01:14:55;99521.69;;;21.87;73.37
42761;BME280;31672;47.638;19.026;2023-09-19T01:30:56;99514.13;;;21.89;73.02
42761;BME280;31672;47.638;19.026;2023-09-19T01:36:02;99512.00;;;21.91;73.17
42761;BME280;31672;47.638;19.026;2023-09-19T01:41:11;99511.41;;;21.89;73.79
42761;BME280;31672;47.638;19.026;2023-09-19T01:46:33;99508.72;;;21.89;73.60
42761;BME280;31672;47.638;19.026;2023-09-19T01:51:55;99509.78;;;21.88;74.23
42761;BME280;31672;47.638;19.026;2023-09-19T01:57:22;99514.09;;;21.84;74.55
42761;BME280;31672;47.638;19.026;2023-09-19T02:02:45;99512.94;;;21.75;75.29
42761;BME280;31672;47.638;19.026;2023-09-19T02:07:52;99508.00;;;21.67;76.13
42761;BME280;31672;47.638;19.026;2023-09-19T02:12:57;99506.28;;;21.55;76.38
42761;BME280;31672;47.638;19.026;2023-09-19T02:18:02;99519.69;;;21.45;76.75
42761;BME280;31672;47.638;19.026;2023-09-19T02:23:07;99513.94;;;21.36;77.04
42761;BME280;31672;47.638;19.026;2023-09-19T02:28:11;99522.97;;;21.25;77.89
42761;BME280;31672;47.638;19.026;2023-09-19T02:33:15;99526.84;;;21.07;78.35
42761;BME280;31672;47.638;19.026;2023-09-19T02:38:21;99527.16;;;20.89;78.83
42761;BME280;31672;47.638;19.026;2023-09-19T02:43:28;99532.06;;;20.70;80.03
42761;BME280;31672;47.638;19.026;2023-09-19T02:48:32;99527.00;;;20.57;80.81
42761;BME280;31672;47.638;19.026;2023-09-19T02:53:37;99507.06;;;20.41;82.02
42761;BME280;31672;47.638;19.026;2023-09-19T02:58:41;99506.44;;;20.34;82.74
42761;BME280;31672;47.638;19.026;2023-09-19T03:03:46;99502.50;;;20.25;83.25
42761;BME280;31672;47.638;19.026;2023-09-19T03:08:50;99505.66;;;20.17;84.58
42761;BME280;31672;47.638;19.026;2023-09-19T03:13:55;99493.88;;;20.06;85.75
42761;BME280;31672;47.638;19.026;2023-09-19T03:18:59;99505.66;;;20.00;86.73
42761;BME280;31672;47.638;19.026;2023-09-19T03:24:04;99506.31;;;19.90;87.00
42761;BME280;31672;47.638;19.026;2023-09-19T03:29:07;99521.03;;;19.83;87.44
42761;BME280;31672;47.638;19.026;2023-09-19T03:34:13;99527.38;;;19.76;88.15
42761;BME280;31672;47.638;19.026;2023-09-19T03:39:17;99517.91;;;19.74;88.58
42761;BME280;31672;47.638;19.026;2023-09-19T03:44:21;99524.84;;;19.70;88.99
42761;BME280;31672;47.638;19.026;2023-09-19T03:49:25;99523.03;;;19.59;89.98
42761;BME280;31672;47.638;19.026;2023-09-19T03:54:29;99523.50;;;19.56;90.70
42761;BME280;31672;47.638;19.026;2023-09-19T03:59:32;99523.97;;;19.52;92.33
42761;BME280;31672;47.638;19.026;2023-09-19T04:04:36;99538.41;;;19.58;93.21
42761;BME280;31672;47.638;19.026;2023-09-19T04:09:39;99539.66;;;19.67;93.83
42761;BME280;31672;47.638;19.026;2023-09-19T04:14:43;99546.50;;;19.75;93.48
42761;BME280;31672;47.638;19.026;2023-09-19T04:19:47;99546.34;;;19.82;91.33
42761;BME280;31672;47.638;19.026;2023-09-19T04:24:51;99549.78;;;19.94;88.00
42761;BME280;31672;47.638;19.026;2023-09-19T04:29:55;99547.47;;;20.02;86.42
42761;BME280;31672;47.638;19.026;2023-09-19T04:35:04;99552.50;;;20.11;86.10
42761;BME280;31672;47.638;19.026;2023-09-19T04:40:10;99566.78;;;20.11;84.67
42761;BME280;31672;47.638;19.026;2023-09-19T04:45:21;99563.84;;;20.13;84.09
42761;BME280;31672;47.638;19.026;2023-09-19T04:50:25;99570.31;;;20.12;83.50
42761;BME280;31672;47.638;19.026;2023-09-19T04:55:30;99573.00;;;20.12;83.39
42761;BME280;31672;47.638;19.026;2023-09-19T05:00:36;99588.84;;;20.08;83.40
42761;BME280;31672;47.638;19.026;2023-09-19T05:05:40;99586.91;;;20.03;83.34
42761;BME280;31672;47.638;19.026;2023-09-19T05:10:46;99588.34;;;19.94;84.43
42761;BME280;31672;47.638;19.026;2023-09-19T05:15:50;99593.16;;;19.75;85.31
42761;BME280;31672;47.638;19.026;2023-09-19T05:20:54;99615.69;;;19.58;86.87
42761;BME280;31672;47.638;19.026;2023-09-19T05:25:58;99618.44;;;19.46;88.16
42761;BME280;31672;47.638;19.026;2023-09-19T05:31:03;99625.88;;;19.27;88.42
42761;BME280;31672;47.638;19.026;2023-09-19T05:36:07;99639.28;;;19.10;89.43
42761;BME280;31672;47.638;19.026;2023-09-19T05:41:15;99641.03;;;18.93;90.31
42761;BME280;31672;47.638;19.026;2023-09-19T05:46:19;99638.03;;;18.78;90.74
42761;BME280;31672;47.638;19.026;2023-09-19T05:51:23;99630.94;;;18.65;92.04
42761;BME280;31672;47.638;19.026;2023-09-19T05:56:27;99633.88;;;18.52;92.98
42761;BME280;31672;47.638;19.026;2023-09-19T06:01:31;99632.25;;;18.39;94.29
42761;BME280;31672;47.638;19.026;2023-09-19T06:06:36;99626.59;;;18.29;94.83
42761;BME280;31672;47.638;19.026;2023-09-19T06:11:43;99624.94;;;18.16;95.71
42761;BME280;31672;47.638;19.026;2023-09-19T06:16:47;99637.09;;;18.07;96.56
42761;BME280;31672;47.638;19.026;2023-09-19T06:21:51;99640.34;;;17.97;96.99
42761;BME280;31672;47.638;19.026;2023-09-19T06:26:55;99639.97;;;17.82;99.49
42761;BME280;31672;47.638;19.026;2023-09-19T06:31:59;99659.22;;;17.60;100.00
42761;BME280;31672;47.638;19.026;2023-09-19T06:37:03;99659.03;;;17.44;100.00
42761;BME280;31672;47.638;19.026;2023-09-19T06:42:06;99666.66;;;17.28;100.00
42761;BME280;31672;47.638;19.026;2023-09-19T06:47:12;99665.53;;;17.18;100.00
42761;BME280;31672;47.638;19.026;2023-09-19T06:52:15;99666.66;;;17.10;100.00
42761;BME280;31672;47.638;19.026;2023-09-19T06:57:19;99684.25;;;17.06;100.00
42761;BME280;31672;47.638;19.026;2023-09-19T07:02:24;99686.78;;;17.01;100.00
42761;BME280;31672;47.638;19.026;2023-09-19T07:07:27;99689.44;;;17.01;100.00
42761;BME280;31672;47.638;19.026;2023-09-19T07:12:32;99692.53;;;17.04;100.00
42761;BME280;31672;47.638;19.026;2023-09-19T07:17:36;99700.34;;;17.06;100.00
42761;BME280;31672;47.638;19.026;2023-09-19T07:22:40;99702.56;;;17.09;100.00
42761;BME280;31672;47.638;19.026;2023-09-19T07:27:45;99717.66;;;17.10;100.00
42761;BME280;31672;47.638;19.026;2023-09-19T07:32:49;99729.81;;;17.12;100.00
42761;BME280;31672;47.638;19.026;2023-09-19T07:37:53;99740.31;;;17.14;100.00
42761;BME280;31672;47.638;19.026;2023-09-19T07:42:57;99736.97;;;17.19;100.00
42761;BME280;31672;47.638;19.026;2023-09-19T07:48:05;99742.75;;;17.22;100.00
42761;BME280;31672;47.638;19.026;2023-09-19T07:53:17;99736.69;;;17.27;100.00
42761;BME280;31672;47.638;19.026;2023-09-19T07:58:21;99751.91;;;17.33;100.00
42761;BME280;31672;47.638;19.026;2023-09-19T08:03:26;99755.44;;;17.33;100.00
42761;BME280;31672;47.638;19.026;2023-09-19T08:08:30;99764.44;;;17.39;100.00
42761;BME280;31672;47.638;19.026;2023-09-19T08:13:35;99766.91;;;17.41;100.00
42761;BME280;31672;47.638;19.026;2023-09-19T08:18:39;99774.75;;;17.42;100.00
42761;BME280;31672;47.638;19.026;2023-09-19T08:23:44;99787.13;;;17.43;100.00
42761;BME280;31672;47.638;19.026;2023-09-19T08:28:48;99785.91;;;17.39;100.00
42761;BME280;31672;47.638;19.026;2023-09-19T08:33:51;99791.16;;;17.34;100.00
42761;BME280;31672;47.638;19.026;2023-09-19T08:38:57;99808.91;;;17.35;100.00
42761;BME280;31672;47.638;19.026;2023-09-19T08:44:00;99811.84;;;17.33;100.00
42761;BME280;31672;47.638;19.026;2023-09-19T08:49:25;99823.59;;;17.32;100.00
42761;BME280;31672;47.638;19.026;2023-09-19T08:54:38;99841.97;;;17.35;100.00
42761;BME280;31672;47.638;19.026;2023-09-19T08:59:44;99849.84;;;17.30;100.00
42761;BME280;31672;47.638;19.026;2023-09-19T09:04:50;99855.06;;;17.25;100.00
42761;BME280;31672;47.638;19.026;2023-09-19T09:09:54;99834.03;;;17.22;100.00
42761;BME280;31672;47.638;19.026;2023-09-19T09:14:58;99827.16;;;17.26;100.00
42761;BME280;31672;47.638;19.026;2023-09-19T09:20:02;99833.31;;;17.33;100.00
42761;BME280;31672;47.638;19.026;2023-09-19T09:25:06;99838.38;;;17.42;100.00
42761;BME280;31672;47.638;19.026;2023-09-19T09:30:33;99838.81;;;17.38;100.00
42761;BME280;31672;47.638;19.026;2023-09-19T09:35:55;99823.59;;;17.32;100.00
42761;BME280;31672;47.638;19.026;2023-09-19T09:41:03;99817.22;;;17.27;100.00
42761;BME280;31672;47.638;19.026;2023-09-19T09:46:19;99822.00;;;17.25;100.00
42761;BME280;31672;47.638;19.026;2023-09-19T09:51:30;99844.66;;;17.35;100.00
42761;BME280;31672;47.638;19.026;2023-09-19T09:56:34;99854.00;;;17.51;100.00
42761;BME280;31672;47.638;19.026;2023-09-19T10:01:47;99841.53;;;17.57;100.00
42761;BME280;31672;47.638;19.026;2023-09-19T10:06:52;99843.78;;;17.60;100.00
42761;BME280;31672;47.638;19.026;2023-09-19T10:12:06;99843.06;;;17.71;100.00
42761;BME280;31672;47.638;19.026;2023-09-19T10:17:13;99833.25;;;17.83;100.00
42761;BME280;31672;47.638;19.026;2023-09-19T10:22:25;99822.09;;;17.98;100.00
42761;BME280;31672;47.638;19.026;2023-09-19T10:27:29;99821.41;;;18.21;100.00
42761;BME280;31672;47.638;19.026;2023-09-19T10:32:40;99836.00;;;18.43;100.00
42761;BME280;31672;47.638;19.026;2023-09-19T10:37:47;99844.78;;;18.69;100.00
42761;BME280;31672;47.638;19.026;2023-09-19T10:42:54;99836.06;;;18.85;100.00
42761;BME280;31672;47.638;19.026;2023-09-19T10:48:03;99852.94;;;19.04;100.00
42761;BME280;31672;47.638;19.026;2023-09-19T10:53:12;99856.97;;;19.13;100.00
42761;BME280;31672;47.638;19.026;2023-09-19T10:58:27;99864.31;;;19.18;100.00
42761;BME280;31672;47.638;19.026;2023-09-19T11:03:41;99859.41;;;19.15;100.00
42761;BME280;31672;47.638;19.026;2023-09-19T11:08:55;99874.28;;;19.17;100.00
42761;BME280;31672;47.638;19.026;2023-09-19T11:30:39;99867.97;;;19.47;100.00
42761;BME280;31672;47.638;19.026;2023-09-19T11:36:08;99879.22;;;19.91;99.94
42761;BME280;31672;47.638;19.026;2023-09-19T11:46:27;99874.97;;;20.87;89.24
42761;BME280;31672;47.638;19.026;2023-09-19T11:51:41;99874.16;;;21.20;88.16
42761;BME280;31672;47.638;19.026;2023-09-19T11:56:50;99849.97;;;21.42;85.01
42761;BME280;31672;47.638;19.026;2023-09-19T12:02:05;99862.41;;;21.82;81.28
42761;BME280;31672;47.638;19.026;2023-09-19T12:07:14;99856.28;;;22.08;77.82
42761;BME280;31672;47.638;19.026;2023-09-19T12:12:27;99847.13;;;22.31;74.60
42761;BME280;31672;47.638;19.026;2023-09-19T12:17:40;99858.09;;;22.47;73.74
42761;BME280;31672;47.638;19.026;2023-09-19T12:22:47;99870.00;;;22.46;74.07
42761;BME280;31672;47.638;19.026;2023-09-19T12:27:50;99869.00;;;22.30;74.04
42761;BME280;31672;47.638;19.026;2023-09-19T12:32:59;99871.22;;;22.11;72.33
42761;BME280;31672;47.638;19.026;2023-09-19T12:38:03;99863.19;;;21.99;73.27
42761;BME280;31672;47.638;19.026;2023-09-19T12:43:10;99871.22;;;21.94;73.86
42761;BME280;31672;47.638;19.026;2023-09-19T12:48:26;99878.03;;;21.97;74.05
42761;BME280;31672;47.638;19.026;2023-09-19T12:53:45;99877.22;;;21.96;74.63
42761;BME280;31672;47.638;19.026;2023-09-19T12:58:58;99877.50;;;22.16;77.12
42761;BME280;31672;47.638;19.026;2023-09-19T13:04:30;99883.75;;;22.39;74.99
42761;BME280;31672;47.638;19.026;2023-09-19T13:09:35;99875.75;;;22.49;72.73
42761;BME280;31672;47.638;19.026;2023-09-19T13:14:42;99876.09;;;22.58;73.64
42761;BME280;31672;47.638;19.026;2023-09-19T13:19:51;99868.16;;;22.73;71.68
42761;BME280;31672;47.638;19.026;2023-09-19T13:25:00;99869.47;;;22.70;71.22
42761;BME280;31672;47.638;19.026;2023-09-19T13:30:05;99874.56;;;22.67;70.53
42761;BME280;31672;47.638;19.026;2023-09-19T13:35:10;99879.81;;;22.52;69.42
42761;BME280;31672;47.638;19.026;2023-09-19T13:40:15;99881.19;;;22.54;70.11
42761;BME280;31672;47.638;19.026;2023-09-19T13:45:18;99891.81;;;22.61;69.36
42761;BME280;31672;47.638;19.026;2023-09-19T13:50:25;99884.47;;;22.56;69.17
42761;BME280;31672;47.638;19.026;2023-09-19T13:55:29;99907.25;;;22.60;69.63
42761;BME280;31672;47.638;19.026;2023-09-19T14:00:33;99894.25;;;22.57;68.85
42761;BME280;31672;47.638;19.026;2023-09-19T14:05:40;99912.44;;;22.40;68.62
42761;BME280;31672;47.638;19.026;2023-09-19T14:10:45;99914.31;;;22.17;69.33
42761;BME280;31672;47.638;19.026;2023-09-19T14:15:49;99913.34;;;22.07;70.04
42761;BME280;31672;47.638;19.026;2023-09-19T14:20:52;99909.25;;;22.21;70.63
42761;BME280;31672;47.638;19.026;2023-09-19T14:25:56;99895.38;;;22.39;70.68
42761;BME280;31672;47.638;19.026;2023-09-19T14:31:08;99895.38;;;22.61;69.43
42761;BME280;31672;47.638;19.026;2023-09-19T14:36:12;99894.34;;;22.67;68.31
42761;BME280;31672;47.638;19.026;2023-09-19T14:41:17;99900.44;;;22.80;67.40
42761;BME280;31672;47.638;19.026;2023-09-19T14:46:21;99900.66;;;23.00;65.39
42761;BME280;31672;47.638;19.026;2023-09-19T14:51:25;99882.75;;;23.31;64.47
42761;BME280;31672;47.638;19.026;2023-09-19T14:56:29;99896.25;;;23.58;62.13
42761;BME280;31672;47.638;19.026;2023-09-19T15:01:34;99891.66;;;23.59;60.94
42761;BME280;31672;47.638;19.026;2023-09-19T15:06:38;99898.34;;;23.46;61.32
42761;BME280;31672;47.638;19.026;2023-09-19T15:11:42;99880.94;;;23.42;62.56
42761;BME280;31672;47.638;19.026;2023-09-19T15:16:45;99881.72;;;23.69;61.99
42761;BME280;31672;47.638;19.026;2023-09-19T15:21:49;99884.38;;;24.17;60.54
42761;BME280;31672;47.638;19.026;2023-09-19T15:26:53;99890.28;;;24.61;59.36
42761;BME280;31672;47.638;19.026;2023-09-19T15:31:59;99893.88;;;24.87;55.87
42761;BME280;31672;47.638;19.026;2023-09-19T15:37:05;99896.56;;;24.77;54.12
42761;BME280;31672;47.638;19.026;2023-09-19T15:42:09;99915.22;;;24.43;55.50
42761;BME280;31672;47.638;19.026;2023-09-19T15:47:12;99923.34;;;23.90;56.60
42761;BME280;31672;47.638;19.026;2023-09-19T15:52:17;99928.94;;;23.41;58.56
42761;BME280;31672;47.638;19.026;2023-09-19T15:57:22;99931.66;;;23.09;60.39
42761;BME280;31672;47.638;19.026;2023-09-19T16:02:27;99934.56;;;22.81;61.60
42761;BME280;31672;47.638;19.026;2023-09-19T16:07:32;99929.63;;;22.51;62.86
42761;BME280;31672;47.638;19.026;2023-09-19T16:12:43;99933.03;;;22.19;64.08
42761;BME280;31672;47.638;19.026;2023-09-19T16:17:52;99945.25;;;21.88;65.35
42761;BME280;31672;47.638;19.026;2023-09-19T16:22:56;99939.47;;;21.62;66.41
42761;BME280;31672;47.638;19.026;2023-09-19T16:28:05;99933.41;;;21.38;67.24
42761;BME280;31672;47.638;19.026;2023-09-19T16:33:14;99934.13;;;21.17;68.34
42761;BME280;31672;47.638;19.026;2023-09-19T16:38:18;99934.09;;;21.00;68.97
42761;BME280;31672;47.638;19.026;2023-09-19T16:43:27;99940.34;;;20.89;69.52
42761;BME280;31672;47.638;19.026;2023-09-19T16:48:33;99956.03;;;20.75;70.35
42761;BME280;31672;47.638;19.026;2023-09-19T16:53:53;99961.38;;;20.58;71.42
42761;BME280;31672;47.638;19.026;2023-09-19T16:58:57;99961.66;;;20.45;71.94
42761;BME280;31672;47.638;19.026;2023-09-19T17:04:05;99972.44;;;20.34;72.85
42761;BME280;31672;47.638;19.026;2023-09-19T17:09:11;99968.31;;;20.19;73.82
42761;BME280;31672;47.638;19.026;2023-09-19T17:14:15;99982.75;;;20.01;74.56
42761;BME280;31672;47.638;19.026;2023-09-19T17:19:19;99994.72;;;19.82;75.59
42761;BME280;31672;47.638;19.026;2023-09-19T17:24:25;99992.94;;;19.64;77.35
42761;BME280;31672;47.638;19.026;2023-09-19T17:29:29;100005.06;;;19.55;78.15
42761;BME280;31672;47.638;19.026;2023-09-19T17:34:33;99999.19;;;19.46;78.60
42761;BME280;31672;47.638;19.026;2023-09-19T17:39:36;100006.56;;;19.39;79.24
42761;BME280;31672;47.638;19.026;2023-09-19T17:44:40;100007.13;;;19.30;79.51
42761;BME280;31672;47.638;19.026;2023-09-19T17:49:44;100020.09;;;19.21;79.96
42761;BME280;31672;47.638;19.026;2023-09-19T17:54:48;100015.47;;;19.10;80.80
42761;BME280;31672;47.638;19.026;2023-09-19T17:59:56;100035.09;;;18.98;81.31
42761;BME280;31672;47.638;19.026;2023-09-19T18:05:00;100035.94;;;18.81;81.83
42761;BME280;31672;47.638;19.026;2023-09-19T18:10:06;100045.59;;;18.70;82.14
42761;BME280;31672;47.638;19.026;2023-09-19T18:15:11;100035.41;;;18.54;82.82
42761;BME280;31672;47.638;19.026;2023-09-19T18:20:16;100042.56;;;18.41;83.97
42761;BME280;31672;47.638;19.026;2023-09-19T18:25:27;100044.56;;;18.28;85.02
42761;BME280;31672;47.638;19.026;2023-09-19T18:30:36;100051.47;;;18.17;86.26
42761;BME280;31672;47.638;19.026;2023-09-19T18:35:49;100056.97;;;18.04;87.64
42761;BME280;31672;47.638;19.026;2023-09-19T18:40:54;100063.34;;;17.84;89.18
42761;BME280;31672;47.638;19.026;2023-09-19T18:46:07;100064.03;;;17.73;91.09
42761;BME280;31672;47.638;19.026;2023-09-19T18:51:18;100065.09;;;17.72;93.01
42761;BME280;31672;47.638;19.026;2023-09-19T18:56:24;100067.56;;;17.67;93.80
42761;BME280;31672;47.638;19.026;2023-09-19T19:01:28;100071.13;;;17.61;94.16
42761;BME280;31672;47.638;19.026;2023-09-19T19:06:34;100063.09;;;17.54;94.45
42761;BME280;31672;47.638;19.026;2023-09-19T19:11:37;100077.19;;;17.50;94.60
42761;BME280;31672;47.638;19.026;2023-09-19T19:16:43;100090.66;;;17.43;94.56
42761;BME280;31672;47.638;19.026;2023-09-19T19:21:47;100090.09;;;17.34;94.52
42761;BME280;31672;47.638;19.026;2023-09-19T19:26:51;100085.59;;;17.28;94.77
42761;BME280;31672;47.638;19.026;2023-09-19T19:31:55;100096.34;;;17.22;94.66
42761;BME280;31672;47.638;19.026;2023-09-19T19:37:00;100104.84;;;17.12;95.67
42761;BME280;31672;47.638;19.026;2023-09-19T19:42:04;100101.38;;;17.05;95.99
42761;BME280;31672;47.638;19.026;2023-09-19T19:47:08;100112.97;;;16.99;96.58
42761;BME280;31672;47.638;19.026;2023-09-19T19:52:12;100108.03;;;16.89;97.47
42761;BME280;31672;47.638;19.026;2023-09-19T19:57:17;100110.97;;;16.81;98.20
42761;BME280;31672;47.638;19.026;2023-09-19T20:02:22;100110.53;;;16.77;98.58
42761;BME280;31672;47.638;19.026;2023-09-19T20:07:26;100111.56;;;16.76;98.37
42761;BME280;31672;47.638;19.026;2023-09-19T20:12:31;100109.72;;;16.70;99.11
42761;BME280;31672;47.638;19.026;2023-09-19T20:17:38;100113.84;;;16.66;99.11
42761;BME280;31672;47.638;19.026;2023-09-19T20:22:42;100112.41;;;16.64;98.92
42761;BME280;31672;47.638;19.026;2023-09-19T20:27:46;100121.28;;;16.64;99.38
42761;BME280;31672;47.638;19.026;2023-09-19T20:32:51;100123.34;;;16.62;99.52
42761;BME280;31672;47.638;19.026;2023-09-19T20:37:55;100117.78;;;16.57;99.57
42761;BME280;31672;47.638;19.026;2023-09-19T20:43:04;100119.03;;;16.48;100.00
42761;BME280;31672;47.638;19.026;2023-09-19T20:48:09;100125.66;;;16.39;100.00
42761;BME280;31672;47.638;19.026;2023-09-19T20:53:16;100123.56;;;16.34;100.00
42761;BME280;31672;47.638;19.026;2023-09-19T20:58:21;100124.19;;;16.43;100.00
42761;BME280;31672;47.638;19.026;2023-09-19T21:03:25;100120.66;;;16.49;100.00
42761;BME280;31672;47.638;19.026;2023-09-19T21:08:31;100126.25;;;16.47;100.00
42761;BME280;31672;47.638;19.026;2023-09-19T21:13:35;100148.31;;;16.43;100.00
42761;BME280;31672;47.638;19.026;2023-09-19T21:18:39;100145.63;;;16.36;100.00
42761;BME280;31672;47.638;19.026;2023-09-19T21:23:44;100144.44;;;16.25;100.00
42761;BME280;31672;47.638;19.026;2023-09-19T21:28:48;100148.13;;;16.18;100.00
42761;BME280;31672;47.638;19.026;2023-09-19T21:33:53;100145.66;;;16.10;100.00
42761;BME280;31672;47.638;19.026;2023-09-19T21:38:57;100145.63;;;16.03;100.00
42761;BME280;31672;47.638;19.026;2023-09-19T21:44:05;100141.09;;;15.97;100.00
42761;BME280;31672;47.638;19.026;2023-09-19T21:49:10;100149.34;;;16.02;100.00
42761;BME280;31672;47.638;19.026;2023-09-19T21:54:16;100146.91;;;16.20;100.00
42761;BME280;31672;47.638;19.026;2023-09-19T21:59:23;100139.25;;;16.30;100.00
42761;BME280;31672;47.638;19.026;2023-09-19T22:04:31;100156.78;;;16.26;100.00
42761;BME280;31672;47.638;19.026;2023-09-19T22:09:39;100148.09;;;16.11;100.00
42761;BME280;31672;47.638;19.026;2023-09-19T22:14:45;100155.09;;;15.99;100.00
42761;BME280;31672;47.638;19.026;2023-09-19T22:19:49;100155.72;;;15.94;100.00
42761;BME280;31672;47.638;19.026;2023-09-19T22:24:56;100153.66;;;15.90;100.00
42761;BME280;31672;47.638;19.026;2023-09-19T22:30:01;100154.06;;;15.80;100.00
42761;BME280;31672;47.638;19.026;2023-09-19T22:35:05;100155.69;;;15.74;100.00
42761;BME280;31672;47.638;19.026;2023-09-19T22:40:11;100166.59;;;15.66;100.00
42761;BME280;31672;47.638;19.026;2023-09-19T22:45:31;100170.03;;;15.53;100.00
42761;BME280;31672;47.638;19.026;2023-09-19T22:50:34;100173.28;;;15.42;100.00
42761;BME280;31672;47.638;19.026;2023-09-19T22:55:40;100180.44;;;15.35;100.00
42761;BME280;31672;47.638;19.026;2023-09-19T23:00:44;100182.91;;;15.30;100.00
42761;BME280;31672;47.638;19.026;2023-09-19T23:05:50;100192.16;;;15.27;100.00
42761;BME280;31672;47.638;19.026;2023-09-19T23:10:55;100187.19;;;15.24;100.00
42761;BME280;31672;47.638;19.026;2023-09-19T23:16:02;100196.84;;;15.19;100.00
42761;BME280;31672;47.638;19.026;2023-09-19T23:21:06;100190.22;;;15.15;100.00
42761;BME280;31672;47.638;19.026;2023-09-19T23:26:20;100187.53;;;15.08;100.00
42761;BME280;31672;47.638;19.026;2023-09-19T23:31:24;100187.28;;;15.03;100.00
42761;BME280;31672;47.638;19.026;2023-09-19T23:36:28;100197.94;;;14.96;100.00
42761;BME280;31672;47.638;19.026;2023-09-19T23:41:32;100191.28;;;14.86;100.00
42761;BME280;31672;47.638;19.026;2023-09-19T23:46:37;100214.28;;;14.80;100.00
42761;BME280;31672;47.638;19.026;2023-09-19T23:51:45;100205.59;;;14.71;100.00
42761;BME280;31672;47.638;19.026;2023-09-19T23:56:52;100204.28;;;14.61;100.00
